createdAt,value
2022-08-03T00:01:45.686Z,21.30
2022-08-03T00:04:15.028Z,21.17
2022-08-03T00:06:43.207Z,21.03
2022-08-03T00:09:11.813Z,20.99
2022-08-03T00:11:40.009Z,20.97
2022-08-03T00:14:08.909Z,20.93
2022-08-03T00:16:37.086Z,20.87
2022-08-03T00:19:05.522Z,20.81
2022-08-03T00:21:35.063Z,20.69
2022-08-03T00:24:03.221Z,20.65
2022-08-03T00:26:31.834Z,20.66
2022-08-03T00:29:01.104Z,20.56
2022-08-03T00:31:51.657Z,20.48
2022-08-03T00:34:16.811Z,20.44
2022-08-03T00:36:56.586Z,20.45
2022-08-03T00:39:24.684Z,20.42
2022-08-03T00:41:52.881Z,20.34
2022-08-03T00:44:21.078Z,20.29
2022-08-03T00:46:49.308Z,20.28
2022-08-03T00:49:17.451Z,20.26
2022-08-03T00:51:45.812Z,20.26
2022-08-03T00:54:15.893Z,20.15
2022-08-03T00:57:00.316Z,20.17
2022-08-03T00:59:30.470Z,20.32
2022-08-03T01:01:58.711Z,20.41
2022-08-03T01:04:26.523Z,20.43
2022-08-03T01:07:02.432Z,20.32
2022-08-03T01:09:39.296Z,20.25
2022-08-03T01:12:15.030Z,20.24
2022-08-03T01:14:56.290Z,20.25
2022-08-03T01:17:30.584Z,20.22
2022-08-03T01:20:03.316Z,20.22
2022-08-03T01:23:01.845Z,20.17
2022-08-03T01:25:41.359Z,20.03
2022-08-03T01:28:30.177Z,19.97
2022-08-03T01:31:03.180Z,19.92
2022-08-03T01:33:37.559Z,19.86
2022-08-03T01:36:10.830Z,19.84
2022-08-03T01:38:44.399Z,19.88
2022-08-03T01:41:18.352Z,19.92
2022-08-03T01:44:27.947Z,19.90
2022-08-03T01:46:47.619Z,19.94
2022-08-03T01:49:18.887Z,19.88
2022-08-03T01:51:58.375Z,19.77
2022-08-03T01:54:36.181Z,19.79
2022-08-03T01:57:05.300Z,19.84
2022-08-03T01:59:36.555Z,19.97
2022-08-03T02:02:28.361Z,19.89
2022-08-03T02:04:57.627Z,19.92
2022-08-03T02:07:27.724Z,19.93
2022-08-03T02:09:57.550Z,19.90
2022-08-03T02:12:30.343Z,19.91
2022-08-03T02:15:00.315Z,19.81
2022-08-03T02:17:39.587Z,19.83
2022-08-03T02:20:12.158Z,19.71
2022-08-03T02:22:42.012Z,19.31
2022-08-03T02:25:11.771Z,19.19
2022-08-03T02:27:43.893Z,19.36
2022-08-03T02:30:14.410Z,19.47
2022-08-03T02:32:49.934Z,19.58
2022-08-03T02:35:22.658Z,19.66
2022-08-03T02:37:57.364Z,19.67
2022-08-03T02:40:28.914Z,19.68
2022-08-03T02:43:00.626Z,19.58
2022-08-03T02:45:30.509Z,19.58
2022-08-03T02:48:04.493Z,19.65
2022-08-03T02:50:34.495Z,19.60
2022-08-03T02:53:04.215Z,19.52
2022-08-03T02:55:35.918Z,19.49
2022-08-03T02:58:12.869Z,19.30
2022-08-03T03:00:42.479Z,19.05
2022-08-03T03:03:12.259Z,18.99
2022-08-03T03:05:55.754Z,19.04
2022-08-03T03:08:28.774Z,19.15
2022-08-03T03:10:59.185Z,19.30
2022-08-03T03:13:29.239Z,19.41
2022-08-03T03:16:01.008Z,19.35
2022-08-03T03:18:32.242Z,19.34
2022-08-03T03:21:01.712Z,19.21
2022-08-03T03:23:30.764Z,19.06
2022-08-03T03:26:02.373Z,19.01
2022-08-03T03:28:31.959Z,19.05
2022-08-03T03:31:00.770Z,19.14
2022-08-03T03:33:30.666Z,19.04
2022-08-03T03:35:59.960Z,18.95
2022-08-03T03:38:28.651Z,18.84
2022-08-03T03:40:56.824Z,18.79
2022-08-03T03:43:26.872Z,18.70
2022-08-03T03:45:56.477Z,18.57
2022-08-03T03:48:26.467Z,18.50
2022-08-03T03:50:57.448Z,18.40
2022-08-03T03:53:26.225Z,18.48
2022-08-03T03:56:01.953Z,18.60
2022-08-03T03:58:32.534Z,18.71
2022-08-03T04:01:01.114Z,18.69
2022-08-03T04:03:29.572Z,18.62
2022-08-03T04:06:17.073Z,18.57
2022-08-03T04:09:02.582Z,18.64
2022-08-03T04:11:35.847Z,18.64
2022-08-03T04:14:09.241Z,18.78
2022-08-03T04:16:43.976Z,18.74
2022-08-03T04:19:18.449Z,18.87
2022-08-03T04:21:52.853Z,19.00
2022-08-03T04:24:26.655Z,19.27
2022-08-03T04:26:57.244Z,19.56
2022-08-03T04:29:27.321Z,19.78
2022-08-03T04:31:56.818Z,19.89
2022-08-03T04:34:24.862Z,20.00
2022-08-03T04:36:59.495Z,20.24
2022-08-03T04:39:31.992Z,20.38
2022-08-03T04:42:08.277Z,20.55
2022-08-03T04:44:40.595Z,20.64
2022-08-03T04:47:09.102Z,20.92
2022-08-03T04:49:38.740Z,21.27
2022-08-03T04:52:10.218Z,21.40
2022-08-03T04:54:42.184Z,21.58
2022-08-03T04:57:11.415Z,21.88
2022-08-03T05:00:02.567Z,22.40
2022-08-03T05:02:32.093Z,22.46
2022-08-03T05:05:00.716Z,21.65
2022-08-03T05:07:35.445Z,21.47
2022-08-03T05:10:15.157Z,22.11
2022-08-03T05:12:45.297Z,22.60
2022-08-03T05:15:13.305Z,22.84
2022-08-03T05:17:41.628Z,23.06
2022-08-03T05:20:11.763Z,23.35
2022-08-03T05:22:41.104Z,23.67
2022-08-03T05:25:09.475Z,23.90
2022-08-03T05:27:47.678Z,24.08
2022-08-03T05:30:30.360Z,24.36
2022-08-03T05:33:03.716Z,24.33
2022-08-03T05:35:56.830Z,24.41
2022-08-03T05:38:28.155Z,24.21
2022-08-03T05:41:22.649Z,23.93
2022-08-03T05:43:46.130Z,24.54
2022-08-03T05:46:14.503Z,24.89
2022-08-03T05:48:42.798Z,25.11
2022-08-03T05:51:12.279Z,25.31
2022-08-03T05:53:42.331Z,25.64
2022-08-03T05:56:14.353Z,25.71
2022-08-03T05:58:43.603Z,25.11
2022-08-03T06:01:14.793Z,24.48
2022-08-03T06:03:42.839Z,24.63
2022-08-03T06:06:11.523Z,25.46
2022-08-03T06:08:41.642Z,26.45
2022-08-03T06:11:09.847Z,26.95
2022-08-03T06:13:39.478Z,26.94
2022-08-03T06:16:07.632Z,27.13
2022-08-03T06:18:35.662Z,27.09
2022-08-03T06:21:14.422Z,27.78
2022-08-03T06:23:54.661Z,28.65
2022-08-03T06:26:31.487Z,29.17
2022-08-03T06:28:59.820Z,29.81
2022-08-03T06:31:33.831Z,30.32
2022-08-03T06:34:33.027Z,30.59
2022-08-03T06:36:58.557Z,30.68
2022-08-03T06:39:30.962Z,31.13
2022-08-03T06:41:59.103Z,31.53
2022-08-03T06:44:27.169Z,31.11
2022-08-03T06:46:55.252Z,31.13
2022-08-03T06:49:24.758Z,29.96
2022-08-03T06:52:03.899Z,29.75
2022-08-03T06:54:36.786Z,29.37
2022-08-03T06:57:05.564Z,28.84
2022-08-03T07:00:06.199Z,28.63
2022-08-03T07:02:21.776Z,28.19
2022-08-03T07:04:52.092Z,28.47
2022-08-03T07:07:20.735Z,29.83
2022-08-03T07:09:57.194Z,30.81
2022-08-03T07:12:27.417Z,31.76
2022-08-03T07:15:00.356Z,32.19
2022-08-03T07:17:30.363Z,31.43
2022-08-03T07:19:58.155Z,31.40
2022-08-03T07:22:26.095Z,29.69
2022-08-03T07:24:55.331Z,28.82
2022-08-03T07:27:23.669Z,30.13
2022-08-03T07:29:52.300Z,29.58
2022-08-03T07:32:20.614Z,28.78
2022-08-03T07:34:48.813Z,28.64
2022-08-03T07:37:17.124Z,30.11
2022-08-03T07:39:45.397Z,31.98
2022-08-03T07:42:15.283Z,31.93
2022-08-03T07:44:43.928Z,32.82
2022-08-03T07:47:22.530Z,33.82
2022-08-03T07:49:51.187Z,32.51
2022-08-03T07:52:36.866Z,33.79
2022-08-03T07:55:06.548Z,35.69
2022-08-03T07:57:36.463Z,36.60
2022-08-03T08:00:06.489Z,37.70
2022-08-03T08:02:40.522Z,37.69
2022-08-03T08:05:10.758Z,38.31
2022-08-03T08:07:39.985Z,39.13
2022-08-03T08:10:10.234Z,39.75
2022-08-03T08:12:41.208Z,40.74
2022-08-03T08:15:10.514Z,41.62
2022-08-03T08:17:47.369Z,42.44
2022-08-03T08:20:22.452Z,42.71
2022-08-03T08:22:58.754Z,41.12
2022-08-03T08:25:30.083Z,39.72
2022-08-03T08:28:25.304Z,38.86
2022-08-03T08:30:50.903Z,40.64
2022-08-03T08:33:22.433Z,38.49
2022-08-03T08:35:54.164Z,38.91
2022-08-03T08:38:22.398Z,37.16
2022-08-03T08:40:50.375Z,39.22
2022-08-03T08:43:20.773Z,40.44
2022-08-03T08:45:51.166Z,42.19
2022-08-03T08:48:24.016Z,43.50
2022-08-03T08:50:54.343Z,44.01
2022-08-03T08:53:27.254Z,44.46
2022-08-03T08:55:59.755Z,44.52
2022-08-03T08:58:37.993Z,43.90
2022-08-03T09:01:07.590Z,43.54
2022-08-03T09:03:35.876Z,42.87
2022-08-03T09:06:04.733Z,42.32
2022-08-03T09:08:34.027Z,42.39
2022-08-03T09:11:01.826Z,42.25
2022-08-03T09:13:31.734Z,42.12
2022-08-03T09:16:15.250Z,41.22
2022-08-03T09:18:44.126Z,40.00
2022-08-03T09:21:36.034Z,40.14
2022-08-03T09:24:16.391Z,40.27
2022-08-03T09:26:53.650Z,38.97
2022-08-03T09:29:23.814Z,38.63
2022-08-03T09:32:02.596Z,39.04
2022-08-03T09:34:31.482Z,38.74
2022-08-03T09:36:59.737Z,39.27
2022-08-03T09:39:41.078Z,37.68
2022-08-03T09:42:14.958Z,37.94
2022-08-03T09:44:46.948Z,38.03
2022-08-03T09:47:17.385Z,38.86
2022-08-03T09:49:59.379Z,38.51
2022-08-03T09:52:49.752Z,39.04
2022-08-03T09:56:33.495Z,40.13
2022-08-03T09:58:11.932Z,40.71
2022-08-03T10:00:58.429Z,40.83
2022-08-03T10:03:27.787Z,40.82
2022-08-03T10:05:59.798Z,41.24
2022-08-03T10:08:28.799Z,40.00
2022-08-03T10:10:58.701Z,40.24
2022-08-03T10:13:27.150Z,39.25
2022-08-03T10:16:23.346Z,37.83
2022-08-03T10:18:44.290Z,38.75
2022-08-03T10:21:17.653Z,38.56
2022-08-03T10:23:46.536Z,39.20
2022-08-03T10:26:20.438Z,41.19
2022-08-03T10:28:51.664Z,43.04
2022-08-03T10:31:23.650Z,44.84
2022-08-03T10:33:53.587Z,45.74
2022-08-03T10:36:24.843Z,47.05
2022-08-03T10:38:54.101Z,47.33
2022-08-03T10:41:23.238Z,48.98
2022-08-03T10:43:54.219Z,49.27
2022-08-03T10:46:23.738Z,48.07
2022-08-03T10:48:54.015Z,49.32
2022-08-03T10:51:22.898Z,50.24
2022-08-03T10:53:54.639Z,50.85
2022-08-03T10:56:58.549Z,50.56
2022-08-03T11:00:00.672Z,49.77
2022-08-03T11:03:06.584Z,48.09
2022-08-03T11:05:37.646Z,46.17
2022-08-03T11:08:36.175Z,39.23
2022-08-03T11:11:30.718Z,35.01
2022-08-03T11:14:00.635Z,33.50
2022-08-03T11:16:29.065Z,33.75
2022-08-03T11:19:00.337Z,33.90
2022-08-03T11:21:59.665Z,35.00
2022-08-03T11:24:58.834Z,36.02
2022-08-03T11:27:29.607Z,35.22
2022-08-03T11:29:59.643Z,36.92
2022-08-03T11:32:54.167Z,40.48
2022-08-03T11:35:25.947Z,44.06
2022-08-03T11:38:24.701Z,47.45
2022-08-03T11:40:54.564Z,49.96
2022-08-03T11:43:47.249Z,51.83
2022-08-03T11:46:28.221Z,52.13
2022-08-03T11:49:09.832Z,54.20
2022-08-03T11:51:41.151Z,53.80
2022-08-03T11:54:09.361Z,55.40
2022-08-03T11:56:48.415Z,55.11
2022-08-03T11:59:21.856Z,52.12
2022-08-03T12:01:50.853Z,50.26
2022-08-03T12:04:19.830Z,52.78
2022-08-03T12:07:01.258Z,49.64
2022-08-03T12:09:29.836Z,49.21
2022-08-03T12:12:00.294Z,43.64
2022-08-03T12:14:49.817Z,45.50
2022-08-03T12:17:20.985Z,49.70
2022-08-03T12:19:49.148Z,47.49
2022-08-03T12:22:32.674Z,51.72
2022-08-03T12:25:00.820Z,51.79
2022-08-03T12:27:29.888Z,47.95
2022-08-03T12:29:59.925Z,51.87
2022-08-03T12:32:31.518Z,53.33
2022-08-03T12:35:01.631Z,55.87
2022-08-03T12:37:32.440Z,56.98
2022-08-03T12:40:10.249Z,57.48
2022-08-03T12:42:40.628Z,58.18
2022-08-03T12:45:24.965Z,58.09
2022-08-03T12:47:54.737Z,58.63
2022-08-03T12:50:27.902Z,58.88
2022-08-03T12:52:59.808Z,57.63
2022-08-03T12:55:56.556Z,57.31
2022-08-03T12:58:33.640Z,57.98
2022-08-03T13:01:05.216Z,55.10
2022-08-03T13:03:43.206Z,54.19
2022-08-03T13:06:15.686Z,55.87
2022-08-03T13:08:48.098Z,52.71
2022-08-03T13:11:57.932Z,50.03
2022-08-03T13:14:20.098Z,46.73
2022-08-03T13:16:49.255Z,46.44
2022-08-03T13:19:17.308Z,40.39
2022-08-03T13:21:53.495Z,38.89
2022-08-03T13:24:34.876Z,43.42
2022-08-03T13:28:01.092Z,45.93
2022-08-03T13:29:55.655Z,42.01
2022-08-03T13:32:24.720Z,48.02
2022-08-03T13:34:52.745Z,51.64
2022-08-03T13:37:22.460Z,52.17
2022-08-03T13:39:59.868Z,54.00
2022-08-03T13:42:29.614Z,53.69
2022-08-03T13:44:57.849Z,52.94
2022-08-03T13:47:26.106Z,53.33
2022-08-03T13:49:59.815Z,48.80
2022-08-03T13:52:28.724Z,43.92
2022-08-03T13:54:58.523Z,42.10
2022-08-03T13:58:02.399Z,42.63
2022-08-03T14:00:17.218Z,46.30
2022-08-03T14:03:01.890Z,50.32
2022-08-03T14:05:32.825Z,49.36
2022-08-03T14:08:04.624Z,47.76
2022-08-03T14:10:34.754Z,46.81
2022-08-03T14:13:03.020Z,44.29
2022-08-03T14:15:31.220Z,45.09
2022-08-03T14:17:59.865Z,44.10
2022-08-03T14:20:37.876Z,46.93
2022-08-03T14:23:08.889Z,43.31
2022-08-03T14:25:43.654Z,45.41
2022-08-03T14:28:22.804Z,41.85
2022-08-03T14:30:51.185Z,47.86
2022-08-03T14:33:19.785Z,47.15
2022-08-03T14:35:47.930Z,50.46
2022-08-03T14:38:15.925Z,53.13
2022-08-03T14:40:46.062Z,54.12
2022-08-03T14:43:14.475Z,49.69
2022-08-03T14:45:43.027Z,48.17
2022-08-03T14:50:31.856Z,40.51
2022-08-03T14:51:00.874Z,45.32
2022-08-03T14:53:30.428Z,49.31
2022-08-03T14:55:59.742Z,49.32
2022-08-03T14:58:28.403Z,46.92
2022-08-03T15:00:57.015Z,44.28
2022-08-03T15:03:26.369Z,46.13
2022-08-03T15:05:57.499Z,47.55
2022-08-03T15:08:27.355Z,50.51
2022-08-03T15:10:55.815Z,47.32
2022-08-03T15:13:25.667Z,45.31
2022-08-03T15:15:54.356Z,46.34
2022-08-03T15:18:23.057Z,46.79
2022-08-03T15:20:51.443Z,49.37
2022-08-03T15:23:20.179Z,50.60
2022-08-03T15:26:32.314Z,52.38
2022-08-03T15:28:38.608Z,47.53
2022-08-03T15:31:07.515Z,43.67
2022-08-03T15:33:35.674Z,44.47
2022-08-03T15:36:05.574Z,46.60
2022-08-03T15:38:33.706Z,46.51
2022-08-03T15:41:01.719Z,47.57
2022-08-03T15:43:29.963Z,49.37
2022-08-03T15:46:28.251Z,52.05
2022-08-03T15:48:47.707Z,48.89
2022-08-03T15:51:16.088Z,48.42
2022-08-03T15:53:44.610Z,50.32
2022-08-03T15:56:18.152Z,50.15
2022-08-03T15:59:03.539Z,50.62
2022-08-03T16:01:36.521Z,48.96
2022-08-03T16:04:05.018Z,47.02
2022-08-03T16:06:35.032Z,46.10
2022-08-03T16:09:24.325Z,48.09
2022-08-03T16:11:55.352Z,48.98
2022-08-03T16:14:32.425Z,45.96
2022-08-03T16:17:08.137Z,46.31
2022-08-03T16:19:35.951Z,43.23
2022-08-03T16:22:06.564Z,43.22
2022-08-03T16:24:35.299Z,45.24
2022-08-03T16:27:06.139Z,47.35
2022-08-03T16:29:43.953Z,48.30
2022-08-03T16:32:13.403Z,49.33
2022-08-03T16:34:41.828Z,50.73
2022-08-03T16:37:36.551Z,51.07
2022-08-03T16:39:59.178Z,51.62
2022-08-03T16:42:28.188Z,49.84
2022-08-03T16:44:56.202Z,48.15
2022-08-03T16:47:25.668Z,47.97
2022-08-03T16:49:56.413Z,48.75
2022-08-03T16:52:25.389Z,50.00
2022-08-03T16:54:55.294Z,50.94
2022-08-03T16:57:55.787Z,51.66
2022-08-03T17:00:32.865Z,49.09
2022-08-03T17:03:16.405Z,44.12
2022-08-03T17:05:49.574Z,45.39
2022-08-03T17:08:26.857Z,41.28
2022-08-03T17:10:57.132Z,41.07
2022-08-03T17:13:38.733Z,40.84
2022-08-03T17:16:12.243Z,39.24
2022-08-03T17:18:53.752Z,38.83
2022-08-03T17:21:26.897Z,38.92
2022-08-03T17:24:12.348Z,39.70
2022-08-03T17:26:44.798Z,40.02
2022-08-03T17:29:15.582Z,40.00
2022-08-03T17:31:48.674Z,41.49
2022-08-03T17:34:19.833Z,42.20
2022-08-03T17:37:06.054Z,41.81
2022-08-03T17:39:57.747Z,40.72
2022-08-03T17:42:30.829Z,41.68
2022-08-03T17:45:08.984Z,42.12
2022-08-03T17:47:44.333Z,42.66
2022-08-03T17:50:25.788Z,41.88
2022-08-03T17:53:07.390Z,41.80
2022-08-03T17:55:55.940Z,40.44
2022-08-03T17:58:40.472Z,39.52
2022-08-03T18:02:06.150Z,39.51
2022-08-03T18:04:30.036Z,39.91
2022-08-03T18:07:11.545Z,39.97
2022-08-03T18:10:04.807Z,39.51
2022-08-03T18:12:45.274Z,39.15
2022-08-03T18:15:21.401Z,38.66
2022-08-03T18:18:02.785Z,38.71
2022-08-03T18:20:41.247Z,38.99
2022-08-03T18:23:24.755Z,38.88
2022-08-03T18:26:04.688Z,38.95
2022-08-03T18:28:35.939Z,38.19
2022-08-03T18:31:05.931Z,38.25
2022-08-03T18:36:30.237Z,37.67
2022-08-03T18:39:01.657Z,37.29
2022-08-03T18:41:32.994Z,37.01
2022-08-03T18:44:06.812Z,36.63
2022-08-03T18:46:48.838Z,36.19
2022-08-03T18:49:30.309Z,35.90
2022-08-03T18:52:05.020Z,35.51
2022-08-03T18:55:02.790Z,35.19
2022-08-03T18:57:43.147Z,34.81
2022-08-03T19:00:15.650Z,34.51
2022-08-03T19:02:50.396Z,34.23
2022-08-03T19:05:21.598Z,33.97
2022-08-03T19:08:01.074Z,33.67
2022-08-03T19:10:37.646Z,33.41
2022-08-03T19:13:14.454Z,33.18
2022-08-03T19:18:38.779Z,32.74
2022-08-03T19:21:12.715Z,32.44
2022-08-03T19:23:46.819Z,32.24
2022-08-03T19:26:30.371Z,32.04
2022-08-03T19:29:00.725Z,31.84
2022-08-03T19:31:31.112Z,31.64
2022-08-03T19:34:04.516Z,31.51
2022-08-03T19:36:40.581Z,31.36
2022-08-03T19:39:12.962Z,31.21
2022-08-03T19:41:47.288Z,31.02
2022-08-03T19:44:24.453Z,30.87
2022-08-03T19:46:55.211Z,30.69
2022-08-03T19:50:06.230Z,30.48
2022-08-03T19:52:16.887Z,30.37
2022-08-03T19:54:54.648Z,30.25
2022-08-03T19:57:27.274Z,30.11
2022-08-03T19:59:56.530Z,29.86
2022-08-03T20:02:26.873Z,29.72
2022-08-03T20:04:56.758Z,29.60
2022-08-03T20:07:26.044Z,29.52
2022-08-03T20:09:56.662Z,29.39
2022-08-03T20:12:29.007Z,29.18
2022-08-03T20:14:59.455Z,29.04
2022-08-03T20:17:54.598Z,29.06
2022-08-03T20:20:23.467Z,28.99
2022-08-03T20:22:57.727Z,28.93
2022-08-03T20:25:37.668Z,28.85
2022-08-03T20:28:14.963Z,28.82
2022-08-03T20:30:47.335Z,28.75
2022-08-03T20:33:18.294Z,28.42
2022-08-03T20:35:49.773Z,28.04
2022-08-03T20:38:19.809Z,27.98
2022-08-03T20:40:56.368Z,27.83
2022-08-03T20:43:28.923Z,27.80
2022-08-03T20:46:00.810Z,27.54
2022-08-03T20:48:48.580Z,27.47
2022-08-03T20:51:20.202Z,27.50
2022-08-03T20:54:28.559Z,27.27
2022-08-03T20:56:58.080Z,27.23
2022-08-03T20:59:38.478Z,27.25
2022-08-03T21:02:19.679Z,27.32
2022-08-03T21:04:57.511Z,27.33
2022-08-03T21:07:45.664Z,27.32
2022-08-03T21:10:17.950Z,27.11
2022-08-03T21:12:52.887Z,27.04
2022-08-03T21:13:04.565Z,37.89
2022-08-03T21:13:11.242Z,32.96
2022-08-03T21:16:02.466Z,26.86
2022-08-03T21:18:18.645Z,26.75
2022-08-03T21:20:48.304Z,26.66
2022-08-03T21:23:39.886Z,26.67
2022-08-03T21:26:11.773Z,26.77
2022-08-03T21:28:40.307Z,26.68
2022-08-03T21:31:11.023Z,26.75
2022-08-03T21:33:39.395Z,26.85
2022-08-03T21:36:09.490Z,26.84
2022-08-03T21:38:40.630Z,26.84
2022-08-03T21:41:12.135Z,26.78
2022-08-03T21:43:40.452Z,26.73
2022-08-03T21:46:13.182Z,26.67
2022-08-03T21:48:42.443Z,26.62
2022-08-03T21:51:13.040Z,26.66
2022-08-03T21:54:03.578Z,26.61
2022-08-03T21:56:38.073Z,26.60
2022-08-03T21:59:07.960Z,26.58
2022-08-03T22:01:43.200Z,26.51
2022-08-03T22:04:50.627Z,26.40
2022-08-03T22:07:01.059Z,26.31
2022-08-03T22:09:30.189Z,26.12
2022-08-03T22:11:58.617Z,25.99
2022-08-03T22:14:27.088Z,25.99
2022-08-03T22:16:57.064Z,25.93
2022-08-03T22:19:28.741Z,25.88
2022-08-03T22:21:57.581Z,25.85
2022-08-03T22:24:30.267Z,25.81
2022-08-03T22:27:18.374Z,25.71
2022-08-03T22:29:46.349Z,25.66
2022-08-03T22:32:16.204Z,25.60
2022-08-03T22:34:47.541Z,25.57
2022-08-03T22:37:17.801Z,25.58
2022-08-03T22:39:46.738Z,25.62
2022-08-03T22:42:15.250Z,25.57
2022-08-03T22:44:43.609Z,25.64
2022-08-03T22:47:12.038Z,25.61
2022-08-03T22:49:42.784Z,25.62
2022-08-03T22:52:12.161Z,25.60
2022-08-03T22:54:41.345Z,25.59
2022-08-03T22:57:10.083Z,25.63
2022-08-03T22:59:42.034Z,25.54
2022-08-03T23:02:20.253Z,25.43
2022-08-03T23:04:53.248Z,25.19
2022-08-03T23:07:23.949Z,25.08
2022-08-03T23:09:53.021Z,24.97
2022-08-03T23:12:21.545Z,24.96
2022-08-03T23:14:54.270Z,24.98
2022-08-03T23:17:24.942Z,24.96
2022-08-03T23:19:56.141Z,25.04
2022-08-03T23:22:30.266Z,25.06
2022-08-03T23:25:01.506Z,25.02
2022-08-03T23:27:31.864Z,25.07
2022-08-03T23:30:00.601Z,25.11
2022-08-03T23:32:30.665Z,25.11
2022-08-03T23:35:19.818Z,25.15
2022-08-03T23:38:21.604Z,25.11
2022-08-03T23:40:37.989Z,24.92
2022-08-03T23:43:06.854Z,24.74
2022-08-03T23:45:36.262Z,24.62
2022-08-03T23:48:04.378Z,24.46
2022-08-03T23:50:42.137Z,24.08
2022-08-03T23:53:18.408Z,24.04
2022-08-03T23:56:01.688Z,23.95
2022-08-03T23:58:42.009Z,23.76
